createdAt,value
2022-11-13T00:02:10.232Z,73.59
2022-11-13T00:04:37.892Z,73.54
2022-11-13T00:07:05.604Z,73.41
2022-11-13T00:09:33.315Z,73.68
2022-11-13T00:12:01.031Z,73.58
2022-11-13T00:14:30.058Z,73.56
2022-11-13T00:16:57.691Z,73.57
2022-11-13T00:19:25.413Z,73.71
2022-11-13T00:21:55.017Z,73.97
2022-11-13T00:24:22.673Z,73.85
2022-11-13T00:26:50.372Z,73.86
2022-11-13T00:29:18.450Z,74.17
2022-11-13T00:31:46.068Z,73.63
2022-11-13T00:34:40.989Z,74.18
2022-11-13T00:37:01.860Z,74.37
2022-11-13T00:39:29.457Z,73.99
2022-11-13T00:41:57.036Z,74.34
2022-11-13T00:44:24.725Z,74.12
2022-11-13T00:46:52.329Z,74.25
2022-11-13T00:49:25.280Z,73.83
2022-11-13T00:51:52.922Z,74.09
2022-11-13T00:54:20.537Z,74.32
2022-11-13T00:56:48.139Z,73.98
2022-11-13T00:59:15.818Z,73.82
2022-11-13T01:01:43.729Z,74.15
2022-11-13T01:04:11.331Z,73.40
2022-11-13T01:06:38.993Z,73.78
2022-11-13T01:09:06.588Z,73.62
2022-11-13T01:11:34.243Z,73.52
2022-11-13T01:14:01.896Z,73.24
2022-11-13T01:16:29.464Z,73.28
2022-11-13T01:18:57.034Z,73.34
2022-11-13T01:21:24.646Z,72.92
2022-11-13T01:23:52.191Z,72.97
2022-11-13T01:26:20.795Z,73.02
2022-11-13T01:28:48.415Z,73.36
2022-11-13T01:31:16.805Z,73.19
2022-11-13T01:33:44.819Z,72.96
2022-11-13T01:36:12.411Z,73.51
2022-11-13T01:38:42.875Z,72.98
2022-11-13T01:41:10.455Z,73.08
2022-11-13T01:43:38.046Z,73.57
2022-11-13T01:46:05.621Z,73.31
2022-11-13T01:48:33.183Z,73.32
2022-11-13T01:51:02.507Z,73.55
2022-11-13T01:53:30.095Z,74.11
2022-11-13T01:55:58.072Z,73.53
2022-11-13T01:58:25.894Z,74.06
2022-11-13T02:00:53.648Z,73.87
2022-11-13T02:03:21.537Z,74.40
2022-11-13T02:05:49.146Z,73.80
2022-11-13T02:08:16.712Z,74.28
2022-11-13T02:10:44.243Z,74.30
2022-11-13T02:13:11.882Z,73.79
2022-11-13T02:15:40.997Z,74.16
2022-11-13T02:18:08.896Z,73.92
2022-11-13T02:20:36.517Z,74.46
2022-11-13T02:23:04.856Z,74.39
2022-11-13T02:25:32.385Z,74.52
2022-11-13T02:28:00.277Z,74.29
2022-11-13T02:30:27.921Z,74.28
2022-11-13T02:32:55.598Z,74.61
2022-11-13T02:35:23.183Z,74.71
2022-11-13T02:37:50.767Z,74.71
2022-11-13T02:40:18.690Z,74.68
2022-11-13T02:42:46.313Z,74.31
2022-11-13T02:45:13.981Z,74.62
2022-11-13T02:47:41.524Z,74.42
2022-11-13T02:50:09.180Z,74.77
2022-11-13T02:52:36.952Z,74.62
2022-11-13T02:55:04.536Z,74.31
2022-11-13T02:57:32.114Z,74.93
2022-11-13T02:59:59.679Z,74.74
2022-11-13T03:02:27.627Z,74.73
2022-11-13T03:05:12.903Z,74.68
2022-11-13T03:07:41.052Z,74.92
2022-11-13T03:10:08.646Z,74.41
2022-11-13T03:12:36.200Z,74.78
2022-11-13T03:15:05.610Z,74.59
2022-11-13T03:17:33.242Z,75.00
2022-11-13T03:20:00.787Z,75.10
2022-11-13T03:22:28.769Z,74.91
2022-11-13T03:24:56.324Z,75.28
2022-11-13T03:27:26.845Z,74.89
2022-11-13T03:29:54.412Z,74.79
2022-11-13T03:32:21.998Z,74.73
2022-11-13T03:34:49.530Z,74.95
2022-11-13T03:37:17.086Z,75.12
2022-11-13T03:39:46.090Z,74.97
2022-11-13T03:42:13.628Z,75.38
2022-11-13T03:44:41.614Z,74.84
2022-11-13T03:47:09.217Z,74.97
2022-11-13T03:49:36.778Z,75.00
2022-11-13T03:52:04.647Z,75.00
2022-11-13T03:54:32.233Z,75.60
2022-11-13T03:56:59.799Z,75.90
2022-11-13T03:59:27.337Z,75.70
2022-11-13T04:01:54.972Z,75.26
2022-11-13T04:04:22.567Z,75.56
2022-11-13T04:06:50.638Z,75.70
2022-11-13T04:09:18.264Z,75.88
2022-11-13T04:11:45.771Z,75.78
2022-11-13T04:14:13.294Z,75.88
2022-11-13T04:16:41.267Z,75.31
2022-11-13T04:19:08.840Z,75.81
2022-11-13T04:21:36.364Z,75.38
2022-11-13T04:24:03.942Z,75.32
2022-11-13T04:26:31.507Z,75.28
2022-11-13T04:29:04.598Z,75.29
2022-11-13T04:31:32.139Z,75.38
2022-11-13T04:33:59.728Z,75.15
2022-11-13T04:36:27.284Z,75.75
2022-11-13T04:38:54.809Z,75.35
2022-11-13T04:41:40.324Z,75.39
2022-11-13T04:44:07.870Z,74.58
2022-11-13T04:46:35.398Z,74.94
2022-11-13T04:49:03.402Z,75.51
2022-11-13T04:51:31.183Z,75.02
2022-11-13T04:53:59.126Z,74.80
2022-11-13T04:56:28.933Z,75.09
2022-11-13T04:58:56.505Z,74.72
2022-11-13T05:01:24.073Z,74.74
2022-11-13T05:03:51.674Z,75.29
2022-11-13T05:06:19.581Z,75.24
2022-11-13T05:08:48.330Z,75.25
2022-11-13T05:11:15.904Z,74.75
2022-11-13T05:13:43.457Z,75.15
2022-11-13T05:16:11.016Z,74.88
2022-11-13T05:18:39.017Z,75.22
2022-11-13T05:21:07.308Z,75.20
2022-11-13T05:23:34.870Z,74.84
2022-11-13T05:26:02.474Z,74.86
2022-11-13T05:28:30.317Z,74.92
2022-11-13T05:30:58.479Z,75.26
2022-11-13T05:33:26.483Z,74.70
2022-11-13T05:35:54.019Z,74.89
2022-11-13T05:38:21.593Z,75.39
2022-11-13T05:40:49.175Z,74.80
2022-11-13T05:43:17.113Z,75.40
2022-11-13T05:45:46.370Z,75.42
2022-11-13T05:48:13.972Z,75.55
2022-11-13T05:50:41.540Z,75.10
2022-11-13T05:53:09.066Z,75.16
2022-11-13T05:55:37.416Z,75.65
2022-11-13T05:58:05.041Z,75.44
2022-11-13T06:00:32.630Z,76.03
2022-11-13T06:03:00.214Z,75.48
2022-11-13T06:05:27.771Z,75.53
2022-11-13T06:07:55.670Z,75.49
2022-11-13T06:10:24.619Z,75.88
2022-11-13T06:12:52.172Z,75.71
2022-11-13T06:15:19.745Z,75.84
2022-11-13T06:17:47.641Z,75.73
2022-11-13T06:20:15.571Z,75.97
2022-11-13T06:22:44.747Z,76.15
2022-11-13T06:25:12.352Z,75.91
2022-11-13T06:27:39.869Z,75.94
2022-11-13T06:30:07.454Z,75.99
2022-11-13T06:32:35.435Z,76.01
2022-11-13T06:35:03.988Z,75.65
2022-11-13T06:37:34.587Z,75.78
2022-11-13T06:40:02.475Z,75.41
2022-11-13T06:42:30.034Z,75.14
2022-11-13T06:44:57.960Z,75.88
2022-11-13T06:47:26.169Z,75.48
2022-11-13T06:49:53.765Z,75.53
2022-11-13T06:52:21.334Z,75.42
2022-11-13T06:54:48.904Z,75.68
2022-11-13T06:57:16.571Z,75.03
2022-11-13T06:59:44.741Z,75.53
2022-11-13T07:02:12.771Z,75.60
2022-11-13T07:04:40.334Z,75.57
2022-11-13T07:07:08.036Z,75.51
2022-11-13T07:09:36.012Z,75.85
2022-11-13T07:12:03.619Z,75.68
2022-11-13T07:14:31.218Z,75.05
2022-11-13T07:17:09.086Z,75.46
2022-11-13T07:19:38.209Z,74.66
2022-11-13T07:22:05.878Z,75.20
2022-11-13T07:24:33.474Z,74.58
2022-11-13T07:27:01.052Z,74.51
2022-11-13T07:29:28.672Z,74.67
2022-11-13T07:31:56.677Z,75.01
2022-11-13T07:34:24.290Z,74.96
2022-11-13T07:36:51.912Z,74.19
2022-11-13T07:39:19.500Z,73.93
2022-11-13T07:41:47.089Z,73.84
2022-11-13T07:44:40.133Z,74.41
2022-11-13T07:47:05.812Z,73.57
2022-11-13T07:49:33.450Z,73.61
2022-11-13T07:52:01.082Z,73.61
2022-11-13T07:54:29.097Z,73.93
2022-11-13T07:56:56.744Z,73.39
2022-11-13T07:59:25.868Z,73.95
2022-11-13T08:01:53.549Z,72.94
2022-11-13T08:04:21.684Z,73.05
2022-11-13T08:06:49.779Z,73.83
2022-11-13T08:09:17.502Z,73.35
2022-11-13T08:11:47.387Z,73.69
2022-11-13T08:14:14.979Z,73.22
2022-11-13T08:16:42.661Z,73.59
2022-11-13T08:19:10.727Z,73.17
2022-11-13T08:21:38.464Z,73.54
2022-11-13T08:24:07.533Z,73.27
2022-11-13T08:26:35.554Z,72.63
2022-11-13T08:29:03.307Z,73.03
2022-11-13T08:31:32.494Z,72.40
2022-11-13T08:34:00.343Z,72.32
2022-11-13T08:36:27.992Z,72.49
2022-11-13T08:38:55.646Z,72.23
2022-11-13T08:41:23.402Z,71.96
2022-11-13T08:43:51.380Z,71.86
2022-11-13T08:46:19.064Z,71.67
2022-11-13T08:48:48.944Z,71.78
2022-11-13T08:51:16.800Z,71.53
2022-11-13T08:53:44.541Z,71.16
2022-11-13T08:56:12.421Z,71.25
2022-11-13T08:58:40.191Z,71.23
2022-11-13T09:01:10.678Z,71.46
2022-11-13T09:03:38.720Z,71.09
2022-11-13T09:06:06.504Z,71.17
2022-11-13T09:08:34.388Z,71.13
2022-11-13T09:11:02.252Z,70.69
2022-11-13T09:13:31.491Z,71.07
2022-11-13T09:15:59.299Z,70.89
2022-11-13T09:18:27.464Z,70.84
2022-11-13T09:20:55.772Z,70.41
2022-11-13T09:23:23.469Z,69.75
2022-11-13T09:25:52.335Z,69.80
2022-11-13T09:28:20.064Z,69.30
2022-11-13T09:30:47.856Z,69.18
2022-11-13T09:33:16.550Z,68.88
2022-11-13T09:35:44.444Z,68.47
2022-11-13T09:38:14.656Z,68.63
2022-11-13T09:40:43.097Z,68.49
2022-11-13T09:43:10.931Z,68.14
2022-11-13T09:45:38.789Z,67.82
2022-11-13T09:48:06.722Z,67.65
2022-11-13T09:50:36.365Z,66.76
2022-11-13T09:53:04.180Z,66.51
2022-11-13T09:55:32.455Z,65.52
2022-11-13T09:58:01.096Z,64.55
2022-11-13T10:00:28.942Z,62.61
2022-11-13T10:02:59.049Z,60.13
2022-11-13T10:05:26.928Z,58.16
2022-11-13T10:07:54.667Z,55.76
2022-11-13T10:10:22.646Z,54.77
2022-11-13T10:12:50.446Z,54.35
2022-11-13T10:15:19.687Z,54.35
2022-11-13T10:17:48.063Z,54.74
2022-11-13T10:20:16.886Z,55.35
2022-11-13T10:22:45.400Z,56.44
2022-11-13T10:25:13.546Z,57.11
2022-11-13T10:27:43.804Z,58.17
2022-11-13T10:30:12.379Z,59.15
2022-11-13T10:32:40.341Z,59.46
2022-11-13T10:35:08.658Z,60.04
2022-11-13T10:37:36.465Z,60.17
2022-11-13T10:40:05.909Z,59.87
2022-11-13T10:42:35.809Z,59.87
2022-11-13T10:45:06.997Z,59.88
2022-11-13T10:48:02.621Z,59.89
2022-11-13T10:50:26.790Z,58.94
2022-11-13T10:52:54.721Z,57.21
2022-11-13T10:55:22.591Z,56.72
2022-11-13T10:57:56.167Z,56.38
2022-11-13T11:00:24.652Z,57.04
2022-11-13T11:02:55.353Z,56.98
2022-11-13T11:05:23.337Z,57.44
2022-11-13T11:07:51.983Z,58.41
2022-11-13T11:10:19.741Z,58.81
2022-11-13T11:12:47.531Z,59.02
2022-11-13T11:15:17.179Z,59.57
2022-11-13T11:17:45.089Z,59.76
2022-11-13T11:20:13.627Z,60.01
2022-11-13T11:22:41.982Z,60.47
2022-11-13T11:25:10.421Z,60.62
2022-11-13T11:27:40.295Z,60.60
2022-11-13T11:30:08.225Z,61.44
2022-11-13T11:32:36.124Z,60.67
2022-11-13T11:35:03.992Z,60.15
2022-11-13T11:37:31.920Z,59.97
2022-11-13T11:39:59.751Z,59.90
2022-11-13T11:42:27.480Z,59.82
2022-11-13T11:44:56.157Z,59.88
2022-11-13T11:47:24.156Z,59.94
2022-11-13T11:49:52.024Z,59.68
2022-11-13T11:52:19.972Z,59.27
2022-11-13T11:54:47.797Z,58.83
2022-11-13T11:57:15.936Z,58.31
2022-11-13T11:59:43.923Z,58.35
2022-11-13T12:02:11.736Z,59.17
2022-11-13T12:04:41.393Z,59.34
2022-11-13T12:07:09.668Z,59.67
2022-11-13T12:09:38.155Z,59.88
2022-11-13T12:12:06.067Z,59.98
2022-11-13T12:14:34.098Z,59.62
2022-11-13T12:17:01.940Z,59.77
2022-11-13T12:19:29.947Z,59.88
2022-11-13T12:21:58.297Z,60.12
2022-11-13T12:24:26.257Z,59.62
2022-11-13T12:26:54.072Z,59.75
2022-11-13T12:29:25.313Z,59.99
2022-11-13T12:31:53.230Z,59.96
2022-11-13T12:34:20.945Z,60.64
2022-11-13T12:36:48.980Z,60.00
2022-11-13T12:39:16.837Z,59.92
2022-11-13T12:41:45.114Z,59.98
2022-11-13T12:44:13.027Z,60.19
2022-11-13T12:46:41.412Z,60.01
2022-11-13T12:49:09.214Z,59.98
2022-11-13T12:51:37.636Z,60.15
2022-11-13T12:54:06.054Z,59.58
2022-11-13T12:56:33.969Z,59.42
2022-11-13T12:59:32.086Z,59.59
2022-11-13T13:01:50.270Z,59.85
2022-11-13T13:04:18.276Z,59.41
2022-11-13T13:06:46.391Z,58.71
2022-11-13T13:09:14.839Z,58.94
2022-11-13T13:11:42.749Z,58.20
2022-11-13T13:14:10.634Z,57.65
2022-11-13T13:16:39.735Z,57.74
2022-11-13T13:19:07.780Z,57.67
2022-11-13T13:21:35.972Z,58.15
2022-11-13T13:24:03.857Z,57.88
2022-11-13T13:26:31.637Z,57.83
2022-11-13T13:29:02.831Z,57.25
2022-11-13T13:31:30.760Z,57.24
2022-11-13T13:33:59.537Z,57.59
2022-11-13T13:36:27.410Z,58.28
2022-11-13T13:38:55.295Z,58.36
2022-11-13T13:41:23.345Z,58.55
2022-11-13T13:43:51.245Z,58.39
2022-11-13T13:46:20.417Z,57.84
2022-11-13T13:48:48.482Z,57.89
2022-11-13T13:51:16.389Z,58.22
2022-11-13T13:53:45.454Z,58.28
2022-11-13T13:56:13.785Z,58.23
2022-11-13T13:58:41.978Z,58.03
2022-11-13T14:01:18.958Z,56.97
2022-11-13T14:03:47.383Z,56.46
2022-11-13T14:06:15.150Z,56.41
2022-11-13T14:08:43.561Z,55.97
2022-11-13T14:11:11.693Z,56.49
2022-11-13T14:13:39.462Z,56.80
2022-11-13T14:16:07.404Z,56.38
2022-11-13T14:18:35.755Z,55.80
2022-11-13T14:21:03.604Z,55.07
2022-11-13T14:23:31.398Z,53.96
2022-11-13T14:25:59.329Z,53.41
2022-11-13T14:28:28.165Z,53.27
2022-11-13T14:30:56.082Z,53.32
2022-11-13T14:33:24.460Z,53.64
2022-11-13T14:35:52.480Z,53.83
2022-11-13T14:38:20.643Z,54.22
2022-11-13T14:40:49.255Z,53.74
2022-11-13T14:43:17.453Z,53.45
2022-11-13T14:45:45.432Z,54.95
2022-11-13T14:48:13.511Z,56.50
2022-11-13T14:50:41.380Z,57.69
2022-11-13T14:53:10.132Z,59.09
2022-11-13T14:55:38.258Z,59.76
2022-11-13T14:58:07.080Z,60.61
2022-11-13T15:00:35.038Z,62.29
2022-11-13T15:03:03.251Z,62.52
2022-11-13T15:05:33.608Z,63.62
2022-11-13T15:08:01.527Z,63.89
2022-11-13T15:10:30.192Z,64.20
2022-11-13T15:12:58.101Z,64.92
2022-11-13T15:15:25.974Z,65.04
2022-11-13T15:17:54.132Z,65.01
2022-11-13T15:20:22.395Z,65.30
2022-11-13T15:22:51.019Z,65.55
2022-11-13T15:25:18.870Z,65.80
2022-11-13T15:27:46.814Z,66.37
2022-11-13T15:30:14.693Z,66.33
2022-11-13T15:32:42.702Z,66.05
2022-11-13T15:35:11.120Z,66.99
2022-11-13T15:37:39.333Z,67.05
2022-11-13T15:40:07.252Z,67.01
2022-11-13T15:42:36.245Z,67.00
2022-11-13T15:45:06.172Z,67.35
2022-11-13T15:47:35.299Z,67.63
2022-11-13T15:50:20.438Z,67.25
2022-11-13T15:52:48.504Z,67.71
2022-11-13T15:55:16.349Z,67.77
2022-11-13T15:57:44.538Z,68.11
2022-11-13T16:00:12.669Z,68.11
2022-11-13T16:02:41.541Z,68.28
2022-11-13T16:05:12.240Z,68.37
2022-11-13T16:07:42.287Z,68.76
2022-11-13T16:10:10.774Z,68.70
2022-11-13T16:12:38.593Z,69.17
2022-11-13T16:15:06.529Z,68.93
2022-11-13T16:17:34.433Z,69.12
2022-11-13T16:20:02.275Z,69.24
2022-11-13T16:22:30.674Z,69.64
2022-11-13T16:24:58.991Z,69.38
2022-11-13T16:27:26.896Z,69.81
2022-11-13T16:29:59.105Z,70.13
2022-11-13T16:32:30.180Z,70.02
2022-11-13T16:34:58.298Z,70.18
2022-11-13T16:37:26.167Z,70.01
2022-11-13T16:39:54.031Z,70.06
2022-11-13T16:42:22.469Z,70.43
2022-11-13T16:44:51.278Z,70.81
2022-11-13T16:47:19.632Z,70.72
2022-11-13T16:49:47.588Z,70.72
2022-11-13T16:52:15.580Z,71.05
2022-11-13T16:54:43.955Z,71.37
2022-11-13T16:57:11.957Z,71.41
2022-11-13T16:59:39.657Z,71.07
2022-11-13T17:02:07.597Z,71.25
2022-11-13T17:04:35.625Z,71.11
2022-11-13T17:07:03.947Z,71.13
2022-11-13T17:09:31.919Z,70.99
2022-11-13T17:12:00.287Z,71.19
2022-11-13T17:14:28.101Z,71.78
2022-11-13T17:16:55.944Z,71.50
2022-11-13T17:19:23.987Z,71.58
2022-11-13T17:21:51.695Z,71.77
2022-11-13T17:24:19.870Z,71.99
2022-11-13T17:26:47.899Z,72.23
2022-11-13T17:29:16.065Z,72.12
2022-11-13T17:31:43.827Z,72.26
2022-11-13T17:34:11.711Z,72.60
2022-11-13T17:36:40.070Z,72.61
2022-11-13T17:39:08.001Z,72.78
2022-11-13T17:41:37.607Z,72.91
2022-11-13T17:44:05.420Z,72.87
2022-11-13T17:46:33.403Z,72.82
2022-11-13T17:49:02.307Z,73.00
2022-11-13T17:51:30.607Z,72.93
2022-11-13T17:53:58.664Z,72.57
2022-11-13T17:56:26.799Z,72.69
2022-11-13T17:58:54.518Z,72.70
2022-11-13T18:01:22.965Z,72.89
2022-11-13T18:03:50.934Z,72.84
2022-11-13T18:06:19.962Z,72.90
2022-11-13T18:08:49.573Z,73.24
2022-11-13T18:11:17.624Z,73.11
2022-11-13T18:13:46.477Z,73.23
2022-11-13T18:16:14.567Z,73.06
2022-11-13T18:18:42.491Z,73.61
2022-11-13T18:21:22.565Z,72.74
2022-11-13T18:23:51.432Z,73.31
2022-11-13T18:26:19.392Z,73.06
2022-11-13T18:28:47.260Z,73.06
2022-11-13T18:31:17.180Z,73.20
2022-11-13T18:33:44.908Z,73.30
2022-11-13T18:36:13.064Z,73.31
2022-11-13T18:38:41.017Z,74.02
2022-11-13T18:41:08.972Z,73.67
2022-11-13T18:43:37.959Z,73.60
2022-11-13T18:46:05.846Z,73.87
2022-11-13T18:48:34.133Z,74.09
2022-11-13T18:51:02.116Z,74.38
2022-11-13T18:53:30.462Z,74.66
2022-11-13T18:55:58.816Z,74.46
2022-11-13T18:58:26.656Z,74.83
2022-11-13T19:00:54.753Z,74.10
2022-11-13T19:03:22.745Z,74.24
2022-11-13T19:05:50.602Z,74.52
2022-11-13T19:08:18.637Z,73.93
2022-11-13T19:10:46.663Z,74.33
2022-11-13T19:13:15.016Z,74.09
2022-11-13T19:15:43.348Z,74.69
2022-11-13T19:18:11.682Z,73.65
2022-11-13T19:20:39.629Z,73.97
2022-11-13T19:23:09.341Z,74.30
2022-11-13T19:25:37.716Z,73.92
2022-11-13T19:28:05.695Z,73.54
2022-11-13T19:30:33.636Z,73.59
2022-11-13T19:33:01.578Z,73.38
2022-11-13T19:35:29.469Z,73.37
2022-11-13T19:37:57.744Z,73.56
2022-11-13T19:40:25.689Z,73.51
2022-11-13T19:42:54.213Z,73.03
2022-11-13T19:45:23.227Z,73.37
2022-11-13T19:47:51.098Z,73.34
2022-11-13T19:50:19.547Z,73.30
2022-11-13T19:52:47.750Z,73.11
2022-11-13T19:55:15.628Z,72.97
2022-11-13T19:57:46.009Z,73.58
2022-11-13T20:00:14.873Z,73.63
2022-11-13T20:02:43.172Z,73.70
2022-11-13T20:05:11.389Z,74.23
2022-11-13T20:07:39.331Z,73.99
2022-11-13T20:10:07.283Z,73.82
2022-11-13T20:12:35.314Z,74.17
2022-11-13T20:15:03.665Z,74.63
2022-11-13T20:17:31.563Z,74.11
2022-11-13T20:19:59.409Z,74.39
2022-11-13T20:22:27.302Z,74.27
2022-11-13T20:24:55.666Z,74.34
2022-11-13T20:27:23.885Z,74.23
2022-11-13T20:29:51.796Z,74.26
2022-11-13T20:32:19.687Z,74.10
2022-11-13T20:34:49.973Z,74.27
2022-11-13T20:37:18.039Z,74.24
2022-11-13T20:39:46.245Z,73.90
2022-11-13T20:42:14.156Z,74.34
2022-11-13T20:44:42.076Z,74.32
2022-11-13T20:47:14.316Z,74.42
2022-11-13T20:49:42.302Z,74.14
2022-11-13T20:52:11.487Z,74.43
2022-11-13T20:54:39.295Z,74.14
2022-11-13T20:57:07.257Z,74.25
2022-11-13T20:59:35.196Z,74.82
2022-11-13T21:02:03.198Z,74.67
2022-11-13T21:04:31.413Z,74.86
2022-11-13T21:06:59.499Z,74.51
2022-11-13T21:09:27.432Z,74.56
2022-11-13T21:11:56.670Z,74.55
2022-11-13T21:14:24.545Z,74.44
2022-11-13T21:16:53.012Z,74.92
2022-11-13T21:19:22.565Z,74.60
2022-11-13T21:21:50.494Z,75.34
2022-11-13T21:24:18.383Z,75.51
2022-11-13T21:26:46.279Z,75.61
2022-11-13T21:29:15.022Z,74.99
2022-11-13T21:31:43.048Z,75.15
2022-11-13T21:34:10.904Z,75.63
2022-11-13T21:36:38.930Z,75.18
2022-11-13T21:39:06.784Z,75.77
2022-11-13T21:41:34.619Z,75.64
2022-11-13T21:44:03.563Z,75.93
2022-11-13T21:46:31.416Z,75.84
2022-11-13T21:48:59.251Z,75.70
2022-11-13T21:51:27.590Z,75.58
2022-11-13T21:53:56.017Z,75.92
2022-11-13T21:56:23.837Z,75.85
2022-11-13T21:58:51.721Z,76.10
2022-11-13T22:01:19.613Z,75.87
2022-11-13T22:03:47.445Z,75.76
2022-11-13T22:06:15.753Z,75.77
2022-11-13T22:08:43.521Z,76.34
2022-11-13T22:11:11.310Z,75.85
2022-11-13T22:13:41.203Z,75.91
2022-11-13T22:16:08.846Z,76.26
2022-11-13T22:18:36.911Z,76.06
2022-11-13T22:21:04.674Z,76.61
2022-11-13T22:23:32.384Z,76.14
2022-11-13T22:26:02.264Z,76.58
2022-11-13T22:28:30.286Z,76.66
2022-11-13T22:30:58.567Z,76.16
2022-11-13T22:33:26.176Z,76.34
2022-11-13T22:35:54.243Z,76.46
2022-11-13T22:38:21.887Z,76.39
2022-11-13T22:40:49.578Z,75.88
2022-11-13T22:43:17.631Z,76.25
2022-11-13T22:45:45.389Z,76.53
2022-11-13T22:48:13.277Z,76.41
2022-11-13T22:50:41.064Z,76.58
2022-11-13T22:53:08.778Z,76.50
2022-11-13T22:55:36.866Z,76.45
2022-11-13T22:58:05.047Z,76.40
2022-11-13T23:00:32.771Z,76.88
2022-11-13T23:03:03.101Z,76.91
2022-11-13T23:05:30.833Z,76.44
2022-11-13T23:07:58.919Z,77.02
2022-11-13T23:10:26.563Z,76.73
2022-11-13T23:12:54.286Z,76.25
2022-11-13T23:15:22.038Z,76.82
2022-11-13T23:17:49.668Z,76.48
2022-11-13T23:20:18.142Z,76.59
2022-11-13T23:22:45.746Z,76.66
2022-11-13T23:25:13.419Z,76.69
2022-11-13T23:27:41.044Z,76.44
2022-11-13T23:30:08.714Z,76.57
2022-11-13T23:32:36.436Z,76.39
2022-11-13T23:35:04.132Z,76.21
2022-11-13T23:37:31.717Z,76.77
2022-11-13T23:40:00.707Z,76.81
2022-11-13T23:42:53.619Z,76.69
2022-11-13T23:45:16.225Z,76.70
2022-11-13T23:47:43.890Z,76.04
2022-11-13T23:50:12.373Z,75.99
2022-11-13T23:52:39.986Z,76.46
2022-11-13T23:55:07.608Z,76.14
2022-11-13T23:57:35.607Z,76.18
